SBFN Airport Information

Runway Information
Runway 12 Length 6053 ft width 148 ft
Elevation 0 ft Threshold 0 ft Heading 0
Runway 30 Length 6053 ft Width 148 ft
Elevation 0 ft Threshold 0 ft Heading 0
Airport Frequencies
Type AFIS Name NORONHA RD Frequency 125.9 MHZ
Airport Navaids
Type VOR-DME Name Fernando Frequency 113700 KHZ
Type NDB Name Noronha Frequency 300 KHZ
Airport Weather Information & NOTAM
ADDS - METARS form results

(0108 UTC 19 May 2022)
Data provider http://aviationweather.gov/metar/data/
 
METAR text: SBFN 190100Z AUTO 09007KT 050V120 9999 SCT017 27/24 Q1012
Conditions at: SBFN (FERNANDO DE NORO, BR) observed 0100 UTC 19 May 2022
Temperature: 27.0°C (81°F)
Dewpoint: 24.0°C (75°F) [RH = 84%]
Pressure (altimeter): 29.88 inches Hg (1012.0 mb)
Winds: from the E (90 degrees) at 8 MPH (7 knots; 3.6 m/s)
Visibility: 6 or more miles (10+ km)
Ceiling: at least 12,000 feet AGL
Clouds: scattered clouds at 1700 feet AGL
Weather: no significant weather observed at this time

Forecast for: SBFN (FERNANDO DE NORO, BR)
Text: TAF SBFN 182020Z 1900/1912 09010KT 9999 SCT020 TN27/1908Z TX29/1912Z RMK PHI
Forecast period: 0000 to 1200 UTC 19 May 2022
Forecast type: FROM: standard forecast or significant change
Winds: from the E (90 degrees) at 12 MPH (10 knots; 5.1 m/s)
Visibility: 6 or more miles (10+ km)
Ceiling: at least 12,000 feet AGL
Clouds: scattered clouds at 2000 feet AGL
Weather: no significant weather forecast for this period